sensor_id;sensor_type;location;lat;lon;timestamp;pressure;altitude;pressure_sealevel;temperature;humidity
50790;BME280;37287;47.554;7.844;2023-01-25T00:00:06;99291.41;;;1.31;100.00
50790;BME280;37287;47.554;7.844;2023-01-25T00:02:33;99290.88;;;1.29;100.00
50790;BME280;37287;47.554;7.844;2023-01-25T00:05:00;99284.75;;;1.28;100.00
50790;BME280;37287;47.554;7.844;2023-01-25T00:07:28;99283.94;;;1.28;100.00
50790;BME280;37287;47.554;7.844;2023-01-25T00:09:55;99281.28;;;1.28;100.00
50790;BME280;37287;47.554;7.844;2023-01-25T00:12:22;99278.09;;;1.26;100.00
50790;BME280;37287;47.554;7.844;2023-01-25T00:14:52;99277.00;;;1.27;100.00
50790;BME280;37287;47.554;7.844;2023-01-25T00:17:19;99275.41;;;1.26;100.00
50790;BME280;37287;47.554;7.844;2023-01-25T00:19:45;99273.84;;;1.25;100.00
50790;BME280;37287;47.554;7.844;2023-01-25T00:22:14;99274.91;;;1.24;100.00
50790;BME280;37287;47.554;7.844;2023-01-25T00:24:40;99265.31;;;1.23;100.00
50790;BME280;37287;47.554;7.844;2023-01-25T00:27:07;99267.47;;;1.20;100.00
50790;BME280;37287;47.554;7.844;2023-01-25T00:29:33;99270.63;;;1.23;100.00
50790;BME280;37287;47.554;7.844;2023-01-25T00:39:32;99251.19;;;1.22;100.00
50790;BME280;37287;47.554;7.844;2023-01-25T00:41:58;99253.84;;;1.22;100.00
50790;BME280;37287;47.554;7.844;2023-01-25T00:44:25;99249.31;;;1.23;100.00
50790;BME280;37287;47.554;7.844;2023-01-25T00:46:52;99242.38;;;1.22;100.00
50790;BME280;37287;47.554;7.844;2023-01-25T00:49:21;99247.69;;;1.22;100.00
50790;BME280;37287;47.554;7.844;2023-01-25T00:51:49;99247.69;;;1.22;100.00
50790;BME280;37287;47.554;7.844;2023-01-25T00:54:17;99246.91;;;1.21;100.00
50790;BME280;37287;47.554;7.844;2023-01-25T00:56:46;99253.31;;;1.20;100.00
50790;BME280;37287;47.554;7.844;2023-01-25T00:59:13;99244.53;;;1.19;100.00
50790;BME280;37287;47.554;7.844;2023-01-25T01:01:40;99249.88;;;1.19;100.00
50790;BME280;37287;47.554;7.844;2023-01-25T01:04:07;99247.47;;;1.18;100.00
50790;BME280;37287;47.554;7.844;2023-01-25T01:06:35;99242.13;;;1.18;100.00
50790;BME280;37287;47.554;7.844;2023-01-25T01:09:02;99229.88;;;1.17;100.00
50790;BME280;37287;47.554;7.844;2023-01-25T01:11:30;99240.53;;;1.17;100.00
50790;BME280;37287;47.554;7.844;2023-01-25T01:13:58;99240.53;;;1.17;100.00
50790;BME280;37287;47.554;7.844;2023-01-25T01:16:25;99240.53;;;1.17;100.00
50790;BME280;37287;47.554;7.844;2023-01-25T01:18:54;99240.53;;;1.17;100.00
50790;BME280;37287;47.554;7.844;2023-01-25T01:21:21;99235.50;;;1.15;100.00
50790;BME280;37287;47.554;7.844;2023-01-25T01:23:48;99233.88;;;1.14;100.00
50790;BME280;37287;47.554;7.844;2023-01-25T01:26:16;99237.66;;;1.13;100.00
50790;BME280;37287;47.554;7.844;2023-01-25T01:28:46;99226.44;;;1.11;100.00
50790;BME280;37287;47.554;7.844;2023-01-25T01:31:18;99231.00;;;1.11;100.00
50790;BME280;37287;47.554;7.844;2023-01-25T01:33:53;99228.63;;;1.09;100.00
50790;BME280;37287;47.554;7.844;2023-01-25T01:36:22;99226.22;;;1.08;100.00
50790;BME280;37287;47.554;7.844;2023-01-25T01:38:54;99227.56;;;1.05;100.00
50790;BME280;37287;47.554;7.844;2023-01-25T01:41:21;99222.53;;;1.03;100.00
50790;BME280;37287;47.554;7.844;2023-01-25T01:43:48;99222.00;;;1.01;100.00
50790;BME280;37287;47.554;7.844;2023-01-25T01:46:16;99212.66;;;0.99;100.00
50790;BME280;37287;47.554;7.844;2023-01-25T01:56:42;99222.34;;;0.95;100.00
50790;BME280;37287;47.554;7.844;2023-01-25T01:59:11;99220.72;;;0.94;100.00
50790;BME280;37287;47.554;7.844;2023-01-25T02:01:41;99219.13;;;0.93;100.00
50790;BME280;37287;47.554;7.844;2023-01-25T02:04:09;99219.13;;;0.93;100.00
50790;BME280;37287;47.554;7.844;2023-01-25T02:06:47;99215.69;;;0.92;100.00
50790;BME280;37287;47.554;7.844;2023-01-25T02:09:22;99228.19;;;0.92;100.00
50790;BME280;37287;47.554;7.844;2023-01-25T02:11:53;99219.13;;;0.93;100.00
50790;BME280;37287;47.554;7.844;2023-01-25T02:14:24;99218.34;;;0.92;100.00
50790;BME280;37287;47.554;7.844;2023-01-25T02:16:52;99213.78;;;0.93;100.00
50790;BME280;37287;47.554;7.844;2023-01-25T02:19:37;99215.69;;;0.92;100.00
50790;BME280;37287;47.554;7.844;2023-01-25T02:22:12;99218.34;;;0.92;100.00
50790;BME280;37287;47.554;7.844;2023-01-25T02:24:46;99217.53;;;0.92;100.00
50790;BME280;37287;47.554;7.844;2023-01-25T02:27:18;99216.75;;;0.91;100.00
50790;BME280;37287;47.554;7.844;2023-01-25T02:29:45;99222.88;;;0.92;100.00
50790;BME280;37287;47.554;7.844;2023-01-25T02:32:12;99220.19;;;0.92;100.00
50790;BME280;37287;47.554;7.844;2023-01-25T02:34:40;99215.69;;;0.92;100.00
50790;BME280;37287;47.554;7.844;2023-01-25T02:37:12;99219.13;;;0.93;100.00
50790;BME280;37287;47.554;7.844;2023-01-25T02:39:40;99207.69;;;0.92;100.00
50790;BME280;37287;47.554;7.844;2023-01-25T02:42:07;99203.91;;;0.93;100.00
50790;BME280;37287;47.554;7.844;2023-01-25T02:44:34;99194.06;;;0.94;100.00
50790;BME280;37287;47.554;7.844;2023-01-25T02:47:00;99199.41;;;0.94;100.00
50790;BME280;37287;47.554;7.844;2023-01-25T02:49:33;99202.06;;;0.94;100.00
50790;BME280;37287;47.554;7.844;2023-01-25T02:51:59;99192.47;;;0.93;100.00
50790;BME280;37287;47.554;7.844;2023-01-25T02:54:26;99199.41;;;0.94;100.00
50790;BME280;37287;47.554;7.844;2023-01-25T02:56:53;99201.00;;;0.95;100.00
50790;BME280;37287;47.554;7.844;2023-01-25T02:59:20;99194.06;;;0.94;100.00
50790;BME280;37287;47.554;7.844;2023-01-25T03:01:46;99201.00;;;0.95;100.00
50790;BME280;37287;47.554;7.844;2023-01-25T03:04:14;99195.66;;;0.95;100.00
50790;BME280;37287;47.554;7.844;2023-01-25T03:06:41;99193.00;;;0.95;100.00
50790;BME280;37287;47.554;7.844;2023-01-25T03:09:09;99195.66;;;0.95;100.00
50790;BME280;37287;47.554;7.844;2023-01-25T03:11:39;99198.03;;;0.96;100.00
50790;BME280;37287;47.554;7.844;2023-01-25T03:14:08;99199.91;;;0.96;100.00
50790;BME280;37287;47.554;7.844;2023-01-25T03:16:34;99197.22;;;0.96;100.00
50790;BME280;37287;47.554;7.844;2023-01-25T03:19:03;99193.50;;;0.97;100.00
50790;BME280;37287;47.554;7.844;2023-01-25T03:21:31;99191.91;;;0.96;100.00
50790;BME280;37287;47.554;7.844;2023-01-25T03:23:59;99191.13;;;0.95;100.00
50790;BME280;37287;47.554;7.844;2023-01-25T03:26:27;99191.91;;;0.96;100.00
50790;BME280;37287;47.554;7.844;2023-01-25T03:28:54;99187.91;;;0.93;100.00
50790;BME280;37287;47.554;7.844;2023-01-25T03:31:21;99184.47;;;0.93;100.00
50790;BME280;37287;47.554;7.844;2023-01-25T03:33:54;99181.00;;;0.92;100.00
50790;BME280;37287;47.554;7.844;2023-01-25T03:36:21;99184.47;;;0.93;100.00
50790;BME280;37287;47.554;7.844;2023-01-25T03:38:47;99177.25;;;0.93;100.00
50790;BME280;37287;47.554;7.844;2023-01-25T03:41:14;99182.59;;;0.93;100.00
50790;BME280;37287;47.554;7.844;2023-01-25T03:43:42;99178.63;;;0.91;100.00
50790;BME280;37287;47.554;7.844;2023-01-25T03:46:10;99177.03;;;0.90;100.00
50790;BME280;37287;47.554;7.844;2023-01-25T03:48:39;99177.81;;;0.90;100.00
50790;BME280;37287;47.554;7.844;2023-01-25T03:51:06;99173.56;;;0.89;100.00
50790;BME280;37287;47.554;7.844;2023-01-25T03:53:33;99165.56;;;0.89;100.00
50790;BME280;37287;47.554;7.844;2023-01-25T03:56:08;99177.03;;;0.90;100.00
50790;BME280;37287;47.554;7.844;2023-01-25T03:58:37;99171.97;;;0.88;100.00
50790;BME280;37287;47.554;7.844;2023-01-25T04:01:05;99173.56;;;0.89;100.00
50790;BME280;37287;47.554;7.844;2023-01-25T04:03:35;99174.66;;;0.88;100.00
50790;BME280;37287;47.554;7.844;2023-01-25T04:06:02;99167.72;;;0.87;100.00
50790;BME280;37287;47.554;7.844;2023-01-25T04:08:29;99170.09;;;0.89;100.00
50790;BME280;37287;47.554;7.844;2023-01-25T04:11:01;99166.94;;;0.87;100.00
50790;BME280;37287;47.554;7.844;2023-01-25T04:13:28;99157.81;;;0.88;100.00
50790;BME280;37287;47.554;7.844;2023-01-25T04:15:55;99157.03;;;0.87;100.00
50790;BME280;37287;47.554;7.844;2023-01-25T04:18:28;99156.25;;;0.87;100.00
50790;BME280;37287;47.554;7.844;2023-01-25T04:20:55;99150.94;;;0.87;100.00
50790;BME280;37287;47.554;7.844;2023-01-25T04:23:24;99140.25;;;0.87;100.00
50790;BME280;37287;47.554;7.844;2023-01-25T04:26:02;99144.50;;;0.88;100.00
50790;BME280;37287;47.554;7.844;2023-01-25T04:28:32;99144.50;;;0.88;100.00
50790;BME280;37287;47.554;7.844;2023-01-25T04:31:01;99134.94;;;0.87;100.00
50790;BME280;37287;47.554;7.844;2023-01-25T04:33:29;99141.84;;;0.88;100.00
50790;BME280;37287;47.554;7.844;2023-01-25T04:35:55;99141.06;;;0.87;100.00
50790;BME280;37287;47.554;7.844;2023-01-25T04:38:22;99134.94;;;0.87;100.00
50790;BME280;37287;47.554;7.844;2023-01-25T04:40:50;99136.78;;;0.86;100.00
50790;BME280;37287;47.554;7.844;2023-01-25T04:43:18;99136.50;;;0.88;100.00
50790;BME280;37287;47.554;7.844;2023-01-25T04:45:45;99139.16;;;0.88;100.00
50790;BME280;37287;47.554;7.844;2023-01-25T04:48:13;99128.50;;;0.88;100.00
50790;BME280;37287;47.554;7.844;2023-01-25T04:50:42;99130.09;;;0.89;100.00
50790;BME280;37287;47.554;7.844;2023-01-25T04:53:11;99126.94;;;0.87;100.00
50790;BME280;37287;47.554;7.844;2023-01-25T04:55:38;99133.84;;;0.88;100.00
50790;BME280;37287;47.554;7.844;2023-01-25T04:58:04;99126.66;;;0.88;100.00
50790;BME280;37287;47.554;7.844;2023-01-25T05:00:31;99126.66;;;0.88;100.00
50790;BME280;37287;47.554;7.844;2023-01-25T05:03:01;99115.16;;;0.88;100.00
50790;BME280;37287;47.554;7.844;2023-01-25T05:05:27;99129.31;;;0.88;100.00
50790;BME280;37287;47.554;7.844;2023-01-25T05:07:56;99121.31;;;0.88;100.00
50790;BME280;37287;47.554;7.844;2023-01-25T05:10:23;99128.25;;;0.89;100.00
50790;BME280;37287;47.554;7.844;2023-01-25T05:12:50;99129.03;;;0.90;100.00
50790;BME280;37287;47.554;7.844;2023-01-25T05:15:18;99125.31;;;0.91;100.00
50790;BME280;37287;47.554;7.844;2023-01-25T05:17:44;99129.81;;;0.90;100.00
50790;BME280;37287;47.554;7.844;2023-01-25T05:20:11;99129.03;;;0.90;100.00
50790;BME280;37287;47.554;7.844;2023-01-25T05:22:38;99135.97;;;0.91;100.00
50790;BME280;37287;47.554;7.844;2023-01-25T05:25:05;99129.03;;;0.90;100.00
50790;BME280;37287;47.554;7.844;2023-01-25T05:27:52;99135.16;;;0.90;100.00
50790;BME280;37287;47.554;7.844;2023-01-25T05:30:18;99138.91;;;0.89;100.00
50790;BME280;37287;47.554;7.844;2023-01-25T05:32:45;99137.03;;;0.90;100.00
50790;BME280;37287;47.554;7.844;2023-01-25T05:35:11;99138.09;;;0.89;100.00
50790;BME280;37287;47.554;7.844;2023-01-25T05:37:38;99136.50;;;0.88;100.00
50790;BME280;37287;47.554;7.844;2023-01-25T05:40:07;99136.50;;;0.88;100.00
50790;BME280;37287;47.554;7.844;2023-01-25T05:42:34;99136.50;;;0.88;100.00
50790;BME280;37287;47.554;7.844;2023-01-25T05:45:00;99133.06;;;0.87;100.00
50790;BME280;37287;47.554;7.844;2023-01-25T05:47:27;99142.94;;;0.87;100.00
50790;BME280;37287;47.554;7.844;2023-01-25T05:49:55;99138.66;;;0.85;100.00
50790;BME280;37287;47.554;7.844;2023-01-25T05:52:22;99134.94;;;0.87;100.00
50790;BME280;37287;47.554;7.844;2023-01-25T05:54:48;99127.22;;;0.85;100.00
50790;BME280;37287;47.554;7.844;2023-01-25T05:57:15;99135.22;;;0.85;100.00
50790;BME280;37287;47.554;7.844;2023-01-25T05:59:42;99134.41;;;0.84;100.00
50790;BME280;37287;47.554;7.844;2023-01-25T06:02:10;99135.22;;;0.85;100.00
50790;BME280;37287;47.554;7.844;2023-01-25T06:04:41;99133.34;;;0.85;100.00
50790;BME280;37287;47.554;7.844;2023-01-25T06:07:08;99128.00;;;0.85;100.00
50790;BME280;37287;47.554;7.844;2023-01-25T06:09:34;99128.00;;;0.85;100.00
50790;BME280;37287;47.554;7.844;2023-01-25T06:12:01;99117.34;;;0.85;100.00
50790;BME280;37287;47.554;7.844;2023-01-25T06:14:29;99122.66;;;0.85;100.00
50790;BME280;37287;47.554;7.844;2023-01-25T06:16:56;99124.25;;;0.87;100.00
50790;BME280;37287;47.554;7.844;2023-01-25T06:19:24;99128.00;;;0.85;100.00
50790;BME280;37287;47.554;7.844;2023-01-25T06:21:50;99118.94;;;0.87;100.00
50790;BME280;37287;47.554;7.844;2023-01-25T06:24:17;99116.56;;;0.85;100.00
50790;BME280;37287;47.554;7.844;2023-01-25T06:26:45;99121.06;;;0.84;100.00
50790;BME280;37287;47.554;7.844;2023-01-25T06:29:13;99116.56;;;0.85;100.00
50790;BME280;37287;47.554;7.844;2023-01-25T06:31:40;99111.22;;;0.85;100.00
50790;BME280;37287;47.554;7.844;2023-01-25T06:34:07;99115.72;;;0.84;100.00
50790;BME280;37287;47.554;7.844;2023-01-25T06:36:34;99110.41;;;0.84;100.00
50790;BME280;37287;47.554;7.844;2023-01-25T06:39:03;99113.88;;;0.85;100.00
50790;BME280;37287;47.554;7.844;2023-01-25T06:41:41;99108.28;;;0.87;100.00
50790;BME280;37287;47.554;7.844;2023-01-25T06:44:10;99110.88;;;0.92;100.00
50790;BME280;37287;47.554;7.844;2023-01-25T06:46:38;99106.34;;;0.92;100.00
50790;BME280;37287;47.554;7.844;2023-01-25T06:49:05;99110.88;;;0.92;100.00
50790;BME280;37287;47.554;7.844;2023-01-25T06:51:31;99111.13;;;0.95;100.00
50790;BME280;37287;47.554;7.844;2023-01-25T06:54:01;99110.34;;;0.95;100.00
50790;BME280;37287;47.554;7.844;2023-01-25T06:56:30;99109.81;;;0.93;100.00
50790;BME280;37287;47.554;7.844;2023-01-25T06:58:58;99115.41;;;0.91;100.00
50790;BME280;37287;47.554;7.844;2023-01-25T07:01:24;99104.25;;;0.89;100.00
50790;BME280;37287;47.554;7.844;2023-01-25T07:04:04;99107.69;;;0.90;100.00
50790;BME280;37287;47.554;7.844;2023-01-25T07:06:33;99101.59;;;0.89;100.00
50790;BME280;37287;47.554;7.844;2023-01-25T07:09:08;99113.03;;;0.90;100.00
50790;BME280;37287;47.554;7.844;2023-01-25T07:11:35;99101.59;;;0.89;100.00
50790;BME280;37287;47.554;7.844;2023-01-25T07:14:03;99107.69;;;0.90;100.00
50790;BME280;37287;47.554;7.844;2023-01-25T07:16:30;99098.63;;;0.91;100.00
50790;BME280;37287;47.554;7.844;2023-01-25T07:19:13;99102.38;;;0.90;100.00
50790;BME280;37287;47.554;7.844;2023-01-25T07:21:43;99101.31;;;0.91;100.00
50790;BME280;37287;47.554;7.844;2023-01-25T07:24:12;99100.50;;;0.90;100.00
50790;BME280;37287;47.554;7.844;2023-01-25T07:26:39;99094.09;;;0.91;100.00
50790;BME280;37287;47.554;7.844;2023-01-25T07:29:14;99094.88;;;0.92;100.00
50790;BME280;37287;47.554;7.844;2023-01-25T07:31:41;99089.53;;;0.92;100.00
50790;BME280;37287;47.554;7.844;2023-01-25T07:34:10;99088.75;;;0.91;100.00
50790;BME280;37287;47.554;7.844;2023-01-25T07:36:39;99093.03;;;0.92;100.00
50790;BME280;37287;47.554;7.844;2023-01-25T07:39:06;99094.34;;;0.95;100.00
50790;BME280;37287;47.554;7.844;2023-01-25T07:41:36;99093.53;;;0.94;100.00
50790;BME280;37287;47.554;7.844;2023-01-25T07:44:02;99101.22;;;0.96;100.00
50790;BME280;37287;47.554;7.844;2023-01-25T07:46:29;99095.91;;;0.96;100.00
50790;BME280;37287;47.554;7.844;2023-01-25T07:48:56;99095.91;;;0.96;100.00
50790;BME280;37287;47.554;7.844;2023-01-25T07:51:25;99100.16;;;0.97;100.00
50790;BME280;37287;47.554;7.844;2023-01-25T07:53:58;99094.56;;;0.98;100.00
50790;BME280;37287;47.554;7.844;2023-01-25T07:56:30;99099.88;;;0.98;100.00
50790;BME280;37287;47.554;7.844;2023-01-25T07:58:59;99095.34;;;0.99;100.00
50790;BME280;37287;47.554;7.844;2023-01-25T08:01:26;99106.81;;;0.99;100.00
50790;BME280;37287;47.554;7.844;2023-01-25T08:03:54;99097.75;;;1.00;100.00
50790;BME280;37287;47.554;7.844;2023-01-25T08:06:23;99100.13;;;1.02;100.00
50790;BME280;37287;47.554;7.844;2023-01-25T08:08:53;99100.13;;;1.02;100.00
50790;BME280;37287;47.554;7.844;2023-01-25T08:11:23;99096.06;;;1.05;100.00
50790;BME280;37287;47.554;7.844;2023-01-25T08:13:51;99092.63;;;1.04;100.00
50790;BME280;37287;47.554;7.844;2023-01-25T08:16:19;99095.00;;;1.06;100.00
50790;BME280;37287;47.554;7.844;2023-01-25T08:18:54;99101.16;;;1.06;100.00
50790;BME280;37287;47.554;7.844;2023-01-25T08:21:22;99095.53;;;1.08;100.00
50790;BME280;37287;47.554;7.844;2023-01-25T08:23:59;99092.88;;;1.08;100.00
50790;BME280;37287;47.554;7.844;2023-01-25T08:26:30;99093.38;;;1.10;100.00
50790;BME280;37287;47.554;7.844;2023-01-25T08:28:58;99093.09;;;1.11;100.00
50790;BME280;37287;47.554;7.844;2023-01-25T08:31:28;99092.31;;;1.11;100.00
50790;BME280;37287;47.554;7.844;2023-01-25T08:33:55;99088.56;;;1.12;100.00
50790;BME280;37287;47.554;7.844;2023-01-25T08:36:22;99084.00;;;1.12;100.00
50790;BME280;37287;47.554;7.844;2023-01-25T08:38:54;99075.22;;;1.12;100.00
50790;BME280;37287;47.554;7.844;2023-01-25T08:41:24;99074.94;;;1.13;100.00
50790;BME280;37287;47.554;7.844;2023-01-25T08:43:53;99078.09;;;1.15;100.00
50790;BME280;37287;47.554;7.844;2023-01-25T08:46:21;99077.31;;;1.15;100.00
50790;BME280;37287;47.554;7.844;2023-01-25T08:48:52;99077.53;;;1.18;100.00
50790;BME280;37287;47.554;7.844;2023-01-25T08:51:20;99072.19;;;1.18;100.00
50790;BME280;37287;47.554;7.844;2023-01-25T08:53:46;99068.47;;;1.19;100.00
50790;BME280;37287;47.554;7.844;2023-01-25T08:56:15;99070.06;;;1.20;100.00
50790;BME280;37287;47.554;7.844;2023-01-25T08:58:44;99059.38;;;1.20;100.00
50790;BME280;37287;47.554;7.844;2023-01-25T09:01:14;99063.38;;;1.23;100.00
50790;BME280;37287;47.554;7.844;2023-01-25T09:03:48;99060.41;;;1.25;100.00
50790;BME280;37287;47.554;7.844;2023-01-25T09:06:16;99053.47;;;1.24;100.00
50790;BME280;37287;47.554;7.844;2023-01-25T09:08:43;99070.56;;;1.23;100.00
50790;BME280;37287;47.554;7.844;2023-01-25T09:11:14;99062.56;;;1.23;100.00
50790;BME280;37287;47.554;7.844;2023-01-25T09:13:43;99051.31;;;1.26;100.00
50790;BME280;37287;47.554;7.844;2023-01-25T09:16:12;99057.16;;;1.28;100.00
50790;BME280;37287;47.554;7.844;2023-01-25T09:18:43;99058.81;;;1.24;100.00
50790;BME280;37287;47.554;7.844;2023-01-25T09:21:12;99052.13;;;1.26;100.00
50790;BME280;37287;47.554;7.844;2023-01-25T09:23:39;99054.50;;;1.28;100.00
50790;BME280;37287;47.554;7.844;2023-01-25T09:26:18;99047.00;;;1.30;100.00
50790;BME280;37287;47.554;7.844;2023-01-25T09:28:47;99052.34;;;1.30;100.00
50790;BME280;37287;47.554;7.844;2023-01-25T09:31:17;99051.75;;;1.33;100.00
50790;BME280;37287;47.554;7.844;2023-01-25T09:33:50;99048.03;;;1.34;100.00
50790;BME280;37287;47.554;7.844;2023-01-25T09:36:18;99052.28;;;1.35;100.00
50790;BME280;37287;47.554;7.844;2023-01-25T09:38:45;99053.31;;;1.39;100.00
50790;BME280;37287;47.554;7.844;2023-01-25T09:44:39;99054.38;;;1.38;100.00
50790;BME280;37287;47.554;7.844;2023-01-25T09:50:16;99065.84;;;1.38;100.00
50790;BME280;37287;47.554;7.844;2023-01-25T09:52:58;99059.72;;;1.38;100.00
50790;BME280;37287;47.554;7.844;2023-01-25T09:55:31;99049.03;;;1.38;100.00
50790;BME280;37287;47.554;7.844;2023-01-25T09:58:00;99052.50;;;1.38;100.00
50790;BME280;37287;47.554;7.844;2023-01-25T10:00:33;99059.72;;;1.38;100.00
50790;BME280;37287;47.554;7.844;2023-01-25T10:03:18;99050.63;;;1.39;100.00
50790;BME280;37287;47.554;7.844;2023-01-25T10:05:49;99039.97;;;1.39;100.00
50790;BME280;37287;47.554;7.844;2023-01-25T10:08:32;99035.41;;;1.40;100.00
50790;BME280;37287;47.554;7.844;2023-01-25T10:11:07;99036.22;;;1.40;100.00
50790;BME280;37287;47.554;7.844;2023-01-25T10:13:37;99034.06;;;1.42;100.00
50790;BME280;37287;47.554;7.844;2023-01-25T10:16:06;99036.44;;;1.44;100.00
50790;BME280;37287;47.554;7.844;2023-01-25T10:21:48;99032.69;;;1.45;100.00
50790;BME280;37287;47.554;7.844;2023-01-25T10:27:34;99029.16;;;1.49;100.00
50790;BME280;37287;47.554;7.844;2023-01-25T10:30:21;99013.66;;;1.51;100.00
50790;BME280;37287;47.554;7.844;2023-01-25T10:32:51;99017.06;;;1.57;100.00
50790;BME280;37287;47.554;7.844;2023-01-25T10:35:25;99008.47;;;1.60;100.00
50790;BME280;37287;47.554;7.844;2023-01-25T10:38:06;99004.94;;;1.65;100.00
50790;BME280;37287;47.554;7.844;2023-01-25T10:40:48;98997.94;;;1.69;100.00
50790;BME280;37287;47.554;7.844;2023-01-25T10:43:20;98998.38;;;1.76;100.00
50790;BME280;37287;47.554;7.844;2023-01-25T10:45:47;98995.63;;;1.81;100.00
50790;BME280;37287;47.554;7.844;2023-01-25T10:48:47;98993.25;;;1.80;100.00
50790;BME280;37287;47.554;7.844;2023-01-25T10:51:31;98989.69;;;1.84;100.00
50790;BME280;37287;47.554;7.844;2023-01-25T10:54:01;98991.78;;;1.87;100.00
50790;BME280;37287;47.554;7.844;2023-01-25T10:56:29;98989.84;;;1.93;100.00
50790;BME280;37287;47.554;7.844;2023-01-25T10:59:26;98982.06;;;1.97;100.00
50790;BME280;37287;47.554;7.844;2023-01-25T11:01:54;98981.75;;;1.98;100.00
50790;BME280;37287;47.554;7.844;2023-01-25T11:04:34;98975.53;;;2.03;100.00
50790;BME280;37287;47.554;7.844;2023-01-25T11:07:02;98970.41;;;2.06;100.00
50790;BME280;37287;47.554;7.844;2023-01-25T11:09:34;98957.19;;;2.15;100.00
50790;BME280;37287;47.554;7.844;2023-01-25T11:14:32;98966.69;;;2.21;100.00
50790;BME280;37287;47.554;7.844;2023-01-25T11:17:03;98959.97;;;2.24;100.00
50790;BME280;37287;47.554;7.844;2023-01-25T11:19:38;98947.91;;;2.27;100.00
50790;BME280;37287;47.554;7.844;2023-01-25T11:24:46;98946.38;;;2.20;100.00
50790;BME280;37287;47.554;7.844;2023-01-25T11:30:08;98937.88;;;2.18;100.00
50790;BME280;37287;47.554;7.844;2023-01-25T11:32:39;98945.31;;;2.21;100.00
50790;BME280;37287;47.554;7.844;2023-01-25T11:35:15;98931.34;;;2.24;100.00
50790;BME280;37287;47.554;7.844;2023-01-25T11:38:00;98933.25;;;2.24;100.00
50790;BME280;37287;47.554;7.844;2023-01-25T11:40:39;98927.53;;;2.31;100.00
50790;BME280;37287;47.554;7.844;2023-01-25T11:43:28;98925.16;;;2.29;100.00
50790;BME280;37287;47.554;7.844;2023-01-25T11:46:24;98934.94;;;2.34;100.00
50790;BME280;37287;47.554;7.844;2023-01-25T11:51:51;98922.47;;;2.43;100.00
50790;BME280;37287;47.554;7.844;2023-01-25T12:00:40;98907.63;;;2.37;100.00
50790;BME280;37287;47.554;7.844;2023-01-25T12:08:17;98903.28;;;2.41;100.00
50790;BME280;37287;47.554;7.844;2023-01-25T12:25:04;98870.22;;;2.37;100.00
50790;BME280;37287;47.554;7.844;2023-01-25T12:27:45;98876.16;;;2.34;100.00
50790;BME280;37287;47.554;7.844;2023-01-25T12:35:56;98855.84;;;2.33;100.00
50790;BME280;37287;47.554;7.844;2023-01-25T12:43:52;98840.91;;;2.32;100.00
50790;BME280;37287;47.554;7.844;2023-01-25T12:46:26;98834.38;;;2.24;100.00
50790;BME280;37287;47.554;7.844;2023-01-25T12:48:58;98837.34;;;2.22;100.00
50790;BME280;37287;47.554;7.844;2023-01-25T12:51:34;98833.00;;;2.27;100.00
50790;BME280;37287;47.554;7.844;2023-01-25T12:54:05;98819.94;;;2.25;100.00
50790;BME280;37287;47.554;7.844;2023-01-25T12:56:44;98830.81;;;2.29;100.00
50790;BME280;37287;47.554;7.844;2023-01-25T12:59:20;98824.47;;;2.24;100.00
50790;BME280;37287;47.554;7.844;2023-01-25T13:01:56;98820.72;;;2.26;100.00
50790;BME280;37287;47.554;7.844;2023-01-25T13:07:33;98814.38;;;2.35;100.00
50790;BME280;37287;47.554;7.844;2023-01-25T13:10:13;98805.59;;;2.35;100.00
50790;BME280;37287;47.554;7.844;2023-01-25T13:12:53;98802.03;;;2.39;100.00
50790;BME280;37287;47.554;7.844;2023-01-25T13:15:43;98800.50;;;2.47;100.00
50790;BME280;37287;47.554;7.844;2023-01-25T13:18:46;98798.22;;;2.54;100.00
50790;BME280;37287;47.554;7.844;2023-01-25T13:21:49;98786.84;;;2.63;100.00
50790;BME280;37287;47.554;7.844;2023-01-25T13:24:23;98791.19;;;2.58;100.00
50790;BME280;37287;47.554;7.844;2023-01-25T13:32:11;98791.13;;;2.50;100.00
50790;BME280;37287;47.554;7.844;2023-01-25T13:37:19;98781.09;;;2.55;100.00
50790;BME280;37287;47.554;7.844;2023-01-25T13:39:49;98785.84;;;2.58;100.00
50790;BME280;37287;47.554;7.844;2023-01-25T13:42:32;98784.28;;;2.57;100.00
50790;BME280;37287;47.554;7.844;2023-01-25T13:45:15;98780.63;;;2.53;100.00
50790;BME280;37287;47.554;7.844;2023-01-25T13:48:13;98791.78;;;2.55;100.00
50790;BME280;37287;47.554;7.844;2023-01-25T13:50:44;98784.38;;;2.52;100.00
50790;BME280;37287;47.554;7.844;2023-01-25T13:55:52;98781.50;;;2.49;100.00
50790;BME280;37287;47.554;7.844;2023-01-25T13:58:24;98775.97;;;2.45;100.00
50790;BME280;37287;47.554;7.844;2023-01-25T14:03:20;98774.22;;;2.40;100.00
50790;BME280;37287;47.554;7.844;2023-01-25T14:05:51;98778.34;;;2.33;100.00
50790;BME280;37287;47.554;7.844;2023-01-25T14:08:21;98783.09;;;2.36;100.00
50790;BME280;37287;47.554;7.844;2023-01-25T14:10:50;98775.09;;;2.36;100.00
50790;BME280;37287;47.554;7.844;2023-01-25T14:13:18;98779.94;;;2.34;100.00
50790;BME280;37287;47.554;7.844;2023-01-25T14:21:17;98766.69;;;2.29;100.00
50790;BME280;37287;47.554;7.844;2023-01-25T14:23:48;98766.81;;;2.23;100.00
50790;BME280;37287;47.554;7.844;2023-01-25T14:26:19;98765.81;;;2.19;100.00
50790;BME280;37287;47.554;7.844;2023-01-25T14:28:49;98755.44;;;2.18;100.00
50790;BME280;37287;47.554;7.844;2023-01-25T14:31:30;98756.22;;;2.18;100.00
50790;BME280;37287;47.554;7.844;2023-01-25T14:33:58;98754.22;;;2.10;100.00
50790;BME280;37287;47.554;7.844;2023-01-25T14:36:27;98756.41;;;2.08;100.00
50790;BME280;37287;47.554;7.844;2023-01-25T14:38:56;98750.56;;;2.06;100.00
50790;BME280;37287;47.554;7.844;2023-01-25T14:41:27;98750.09;;;2.04;100.00
50790;BME280;37287;47.554;7.844;2023-01-25T14:44:04;98751.16;;;2.03;100.00
50790;BME280;37287;47.554;7.844;2023-01-25T14:46:37;98751.78;;;2.00;100.00
50790;BME280;37287;47.554;7.844;2023-01-25T14:51:44;98749.41;;;1.98;100.00
50790;BME280;37287;47.554;7.844;2023-01-25T14:54:18;98749.19;;;1.95;100.00
50790;BME280;37287;47.554;7.844;2023-01-25T14:56:50;98751.38;;;1.93;100.00